sensor_id;sensor_type;location;lat;lon;timestamp;temperature;humidity
35246;DHT22;21379;50.962;6.960;2022-12-11T00:01:45;0.70;99.90
35246;DHT22;21379;50.962;6.960;2022-12-11T00:04:12;0.80;99.90
35246;DHT22;21379;50.962;6.960;2022-12-11T00:06:39;0.90;99.90
35246;DHT22;21379;50.962;6.960;2022-12-11T00:09:06;0.90;99.90
35246;DHT22;21379;50.962;6.960;2022-12-11T00:11:33;0.80;99.90
35246;DHT22;21379;50.962;6.960;2022-12-11T00:14:00;0.90;99.90
35246;DHT22;21379;50.962;6.960;2022-12-11T00:16:27;0.90;99.90
35246;DHT22;21379;50.962;6.960;2022-12-11T00:18:55;1.00;99.90
35246;DHT22;21379;50.962;6.960;2022-12-11T00:21:21;1.00;99.90
35246;DHT22;21379;50.962;6.960;2022-12-11T00:23:49;1.00;99.90
35246;DHT22;21379;50.962;6.960;2022-12-11T00:26:17;0.90;99.90
35246;DHT22;21379;50.962;6.960;2022-12-11T00:28:44;0.90;99.90
35246;DHT22;21379;50.962;6.960;2022-12-11T00:31:13;1.00;99.90
35246;DHT22;21379;50.962;6.960;2022-12-11T00:33:41;0.90;99.90
35246;DHT22;21379;50.962;6.960;2022-12-11T00:36:12;0.90;99.90
35246;DHT22;21379;50.962;6.960;2022-12-11T00:38:40;0.90;99.90
35246;DHT22;21379;50.962;6.960;2022-12-11T00:41:07;0.90;99.90
35246;DHT22;21379;50.962;6.960;2022-12-11T00:43:34;0.90;99.90
35246;DHT22;21379;50.962;6.960;2022-12-11T00:46:01;0.90;99.90
35246;DHT22;21379;50.962;6.960;2022-12-11T00:48:29;1.00;99.90
35246;DHT22;21379;50.962;6.960;2022-12-11T00:50:55;0.90;99.90
35246;DHT22;21379;50.962;6.960;2022-12-11T00:53:24;1.00;99.90
35246;DHT22;21379;50.962;6.960;2022-12-11T00:55:50;1.00;99.90
35246;DHT22;21379;50.962;6.960;2022-12-11T00:58:18;1.00;99.90
35246;DHT22;21379;50.962;6.960;2022-12-11T01:00:45;1.00;99.90
35246;DHT22;21379;50.962;6.960;2022-12-11T01:03:13;1.00;99.90
35246;DHT22;21379;50.962;6.960;2022-12-11T01:05:40;1.10;99.90
35246;DHT22;21379;50.962;6.960;2022-12-11T01:08:07;1.00;99.90
35246;DHT22;21379;50.962;6.960;2022-12-11T01:10:35;1.00;99.90
35246;DHT22;21379;50.962;6.960;2022-12-11T01:13:04;1.00;99.90
35246;DHT22;21379;50.962;6.960;2022-12-11T01:15:34;1.00;99.90
35246;DHT22;21379;50.962;6.960;2022-12-11T01:18:00;1.00;99.90
35246;DHT22;21379;50.962;6.960;2022-12-11T01:20:27;1.10;99.90
35246;DHT22;21379;50.962;6.960;2022-12-11T01:22:55;1.10;99.90
35246;DHT22;21379;50.962;6.960;2022-12-11T01:25:23;1.10;99.90
35246;DHT22;21379;50.962;6.960;2022-12-11T01:27:52;1.10;99.90
35246;DHT22;21379;50.962;6.960;2022-12-11T01:30:20;1.10;99.90
35246;DHT22;21379;50.962;6.960;2022-12-11T01:32:47;1.10;99.90
35246;DHT22;21379;50.962;6.960;2022-12-11T01:35:15;1.00;99.90
35246;DHT22;21379;50.962;6.960;2022-12-11T01:37:42;1.10;99.90
35246;DHT22;21379;50.962;6.960;2022-12-11T01:40:11;1.00;99.90
35246;DHT22;21379;50.962;6.960;2022-12-11T01:42:39;1.00;99.90
35246;DHT22;21379;50.962;6.960;2022-12-11T01:45:30;1.00;99.90
35246;DHT22;21379;50.962;6.960;2022-12-11T01:48:03;1.00;99.90
35246;DHT22;21379;50.962;6.960;2022-12-11T01:50:33;1.00;99.90
35246;DHT22;21379;50.962;6.960;2022-12-11T01:53:02;1.00;99.90
35246;DHT22;21379;50.962;6.960;2022-12-11T01:55:31;1.00;99.90
35246;DHT22;21379;50.962;6.960;2022-12-11T01:57:58;1.00;99.90
35246;DHT22;21379;50.962;6.960;2022-12-11T02:00:24;1.00;99.90
35246;DHT22;21379;50.962;6.960;2022-12-11T02:02:53;0.90;99.90
35246;DHT22;21379;50.962;6.960;2022-12-11T02:05:19;1.00;99.90
35246;DHT22;21379;50.962;6.960;2022-12-11T02:07:51;1.00;99.90
35246;DHT22;21379;50.962;6.960;2022-12-11T02:10:19;0.90;99.90
35246;DHT22;21379;50.962;6.960;2022-12-11T02:12:55;0.90;99.90
35246;DHT22;21379;50.962;6.960;2022-12-11T02:15:30;0.90;99.90
35246;DHT22;21379;50.962;6.960;2022-12-11T02:18:12;0.90;99.90
35246;DHT22;21379;50.962;6.960;2022-12-11T02:20:43;1.00;99.90
35246;DHT22;21379;50.962;6.960;2022-12-11T02:23:32;1.00;99.90
35246;DHT22;21379;50.962;6.960;2022-12-11T02:26:12;1.00;99.90
35246;DHT22;21379;50.962;6.960;2022-12-11T02:28:49;1.00;99.90
35246;DHT22;21379;50.962;6.960;2022-12-11T02:31:22;1.00;99.90
35246;DHT22;21379;50.962;6.960;2022-12-11T02:33:52;1.00;99.90
35246;DHT22;21379;50.962;6.960;2022-12-11T02:36:23;1.00;99.90
35246;DHT22;21379;50.962;6.960;2022-12-11T02:38:52;1.00;99.90
35246;DHT22;21379;50.962;6.960;2022-12-11T02:41:21;1.00;99.90
35246;DHT22;21379;50.962;6.960;2022-12-11T02:43:51;1.00;99.90
35246;DHT22;21379;50.962;6.960;2022-12-11T02:46:20;0.90;99.90
35246;DHT22;21379;50.962;6.960;2022-12-11T02:48:49;0.90;99.90
35246;DHT22;21379;50.962;6.960;2022-12-11T02:51:19;0.90;99.90
35246;DHT22;21379;50.962;6.960;2022-12-11T02:53:47;0.90;99.90
35246;DHT22;21379;50.962;6.960;2022-12-11T02:56:18;1.00;99.90
35246;DHT22;21379;50.962;6.960;2022-12-11T02:58:48;0.90;99.90
35246;DHT22;21379;50.962;6.960;2022-12-11T03:01:18;1.00;99.90
35246;DHT22;21379;50.962;6.960;2022-12-11T03:03:45;0.90;99.90
35246;DHT22;21379;50.962;6.960;2022-12-11T03:06:16;1.00;99.90
35246;DHT22;21379;50.962;6.960;2022-12-11T03:08:44;1.00;99.90
35246;DHT22;21379;50.962;6.960;2022-12-11T03:11:12;0.90;99.90
35246;DHT22;21379;50.962;6.960;2022-12-11T03:13:39;0.90;99.90
35246;DHT22;21379;50.962;6.960;2022-12-11T03:16:12;1.00;99.90
35246;DHT22;21379;50.962;6.960;2022-12-11T03:18:48;1.00;99.90
35246;DHT22;21379;50.962;6.960;2022-12-11T03:21:24;1.00;99.90
35246;DHT22;21379;50.962;6.960;2022-12-11T03:23:59;0.90;99.90
35246;DHT22;21379;50.962;6.960;2022-12-11T03:26:29;0.90;99.90
35246;DHT22;21379;50.962;6.960;2022-12-11T03:29:00;0.90;99.90
35246;DHT22;21379;50.962;6.960;2022-12-11T03:31:37;0.90;99.90
35246;DHT22;21379;50.962;6.960;2022-12-11T03:34:11;0.90;99.90
35246;DHT22;21379;50.962;6.960;2022-12-11T03:36:39;0.90;99.90
35246;DHT22;21379;50.962;6.960;2022-12-11T03:39:14;0.90;99.90
35246;DHT22;21379;50.962;6.960;2022-12-11T03:41:44;1.00;99.90
35246;DHT22;21379;50.962;6.960;2022-12-11T03:44:13;0.90;99.90
35246;DHT22;21379;50.962;6.960;2022-12-11T03:46:42;0.90;99.90
35246;DHT22;21379;50.962;6.960;2022-12-11T03:49:15;1.00;99.90
35246;DHT22;21379;50.962;6.960;2022-12-11T03:51:43;1.00;99.90
35246;DHT22;21379;50.962;6.960;2022-12-11T03:54:12;1.00;99.90
35246;DHT22;21379;50.962;6.960;2022-12-11T03:56:40;1.00;99.90
35246;DHT22;21379;50.962;6.960;2022-12-11T03:59:09;0.90;99.90
35246;DHT22;21379;50.962;6.960;2022-12-11T04:01:35;1.00;99.90
35246;DHT22;21379;50.962;6.960;2022-12-11T04:04:02;1.00;99.90
35246;DHT22;21379;50.962;6.960;2022-12-11T04:06:30;1.00;99.90
35246;DHT22;21379;50.962;6.960;2022-12-11T04:08:57;1.00;99.90
35246;DHT22;21379;50.962;6.960;2022-12-11T04:11:24;1.00;99.90
35246;DHT22;21379;50.962;6.960;2022-12-11T04:13:59;1.00;99.90
35246;DHT22;21379;50.962;6.960;2022-12-11T04:16:44;1.00;99.90
35246;DHT22;21379;50.962;6.960;2022-12-11T04:19:11;1.00;99.90
35246;DHT22;21379;50.962;6.960;2022-12-11T04:21:56;0.90;99.90
35246;DHT22;21379;50.962;6.960;2022-12-11T04:24:41;0.90;99.90
35246;DHT22;21379;50.962;6.960;2022-12-11T04:27:08;0.90;99.90
35246;DHT22;21379;50.962;6.960;2022-12-11T04:29:34;0.90;99.90
35246;DHT22;21379;50.962;6.960;2022-12-11T04:32:01;0.90;99.90
35246;DHT22;21379;50.962;6.960;2022-12-11T04:34:28;0.90;99.90
35246;DHT22;21379;50.962;6.960;2022-12-11T04:36:57;0.90;99.90
35246;DHT22;21379;50.962;6.960;2022-12-11T04:39:24;1.00;99.90
35246;DHT22;21379;50.962;6.960;2022-12-11T04:41:50;1.00;99.90
35246;DHT22;21379;50.962;6.960;2022-12-11T04:44:17;1.00;99.90
35246;DHT22;21379;50.962;6.960;2022-12-11T04:46:44;1.10;99.90
35246;DHT22;21379;50.962;6.960;2022-12-11T04:49:11;1.00;99.90
35246;DHT22;21379;50.962;6.960;2022-12-11T04:51:37;1.00;99.90
35246;DHT22;21379;50.962;6.960;2022-12-11T04:54:05;1.00;99.90
35246;DHT22;21379;50.962;6.960;2022-12-11T04:56:33;1.00;99.90
35246;DHT22;21379;50.962;6.960;2022-12-11T04:59:00;1.00;99.90
35246;DHT22;21379;50.962;6.960;2022-12-11T05:01:26;0.90;99.90
35246;DHT22;21379;50.962;6.960;2022-12-11T05:03:53;0.90;99.90
35246;DHT22;21379;50.962;6.960;2022-12-11T05:06:20;0.90;99.90
35246;DHT22;21379;50.962;6.960;2022-12-11T05:08:47;1.00;99.90
35246;DHT22;21379;50.962;6.960;2022-12-11T05:11:15;1.00;99.90
35246;DHT22;21379;50.962;6.960;2022-12-11T05:13:43;1.00;99.90
35246;DHT22;21379;50.962;6.960;2022-12-11T05:16:11;1.00;99.90
35246;DHT22;21379;50.962;6.960;2022-12-11T05:18:39;1.00;99.90
35246;DHT22;21379;50.962;6.960;2022-12-11T05:21:08;1.00;99.90
35246;DHT22;21379;50.962;6.960;2022-12-11T05:23:35;1.10;99.90
35246;DHT22;21379;50.962;6.960;2022-12-11T05:26:05;1.10;99.90
35246;DHT22;21379;50.962;6.960;2022-12-11T05:28:35;1.10;99.90
35246;DHT22;21379;50.962;6.960;2022-12-11T05:31:04;1.00;99.90
35246;DHT22;21379;50.962;6.960;2022-12-11T05:33:31;1.00;99.90
35246;DHT22;21379;50.962;6.960;2022-12-11T05:35:59;1.00;99.90
35246;DHT22;21379;50.962;6.960;2022-12-11T05:38:26;0.90;99.90
35246;DHT22;21379;50.962;6.960;2022-12-11T05:40:56;0.90;99.90
35246;DHT22;21379;50.962;6.960;2022-12-11T05:43:24;0.90;99.90
35246;DHT22;21379;50.962;6.960;2022-12-11T05:45:53;0.90;99.90
35246;DHT22;21379;50.962;6.960;2022-12-11T05:48:20;1.00;99.90
35246;DHT22;21379;50.962;6.960;2022-12-11T05:50:55;0.90;99.90
35246;DHT22;21379;50.962;6.960;2022-12-11T05:53:22;1.00;99.90
35246;DHT22;21379;50.962;6.960;2022-12-11T05:55:49;1.00;99.90
35246;DHT22;21379;50.962;6.960;2022-12-11T05:58:16;1.00;99.90
35246;DHT22;21379;50.962;6.960;2022-12-11T06:00:44;0.90;99.90
35246;DHT22;21379;50.962;6.960;2022-12-11T06:03:12;0.90;99.90
35246;DHT22;21379;50.962;6.960;2022-12-11T06:05:39;1.00;99.90
35246;DHT22;21379;50.962;6.960;2022-12-11T06:08:07;1.00;99.90
35246;DHT22;21379;50.962;6.960;2022-12-11T06:10:33;1.00;99.90
35246;DHT22;21379;50.962;6.960;2022-12-11T06:13:00;1.00;99.90
35246;DHT22;21379;50.962;6.960;2022-12-11T06:15:27;1.00;99.90
35246;DHT22;21379;50.962;6.960;2022-12-11T06:17:54;0.90;99.90
35246;DHT22;21379;50.962;6.960;2022-12-11T06:20:22;1.00;99.90
35246;DHT22;21379;50.962;6.960;2022-12-11T06:22:49;1.00;99.90
35246;DHT22;21379;50.962;6.960;2022-12-11T06:25:16;1.10;99.90
35246;DHT22;21379;50.962;6.960;2022-12-11T06:27:42;1.10;99.90
35246;DHT22;21379;50.962;6.960;2022-12-11T06:30:10;1.10;99.90
35246;DHT22;21379;50.962;6.960;2022-12-11T06:32:37;1.10;99.90
35246;DHT22;21379;50.962;6.960;2022-12-11T06:35:05;1.10;99.90
35246;DHT22;21379;50.962;6.960;2022-12-11T06:37:33;1.10;99.90
35246;DHT22;21379;50.962;6.960;2022-12-11T06:40:00;1.10;99.90
35246;DHT22;21379;50.962;6.960;2022-12-11T06:42:28;1.10;99.90
35246;DHT22;21379;50.962;6.960;2022-12-11T06:44:55;1.00;99.90
35246;DHT22;21379;50.962;6.960;2022-12-11T06:47:24;1.00;99.90
35246;DHT22;21379;50.962;6.960;2022-12-11T06:49:51;1.00;99.90
35246;DHT22;21379;50.962;6.960;2022-12-11T06:52:18;1.00;99.90
35246;DHT22;21379;50.962;6.960;2022-12-11T06:54:46;1.00;99.90
35246;DHT22;21379;50.962;6.960;2022-12-11T06:57:13;1.00;99.90
35246;DHT22;21379;50.962;6.960;2022-12-11T06:59:40;0.90;99.90
35246;DHT22;21379;50.962;6.960;2022-12-11T07:02:09;0.90;99.90
35246;DHT22;21379;50.962;6.960;2022-12-11T07:04:37;0.90;99.90
35246;DHT22;21379;50.962;6.960;2022-12-11T07:07:04;1.00;99.90
35246;DHT22;21379;50.962;6.960;2022-12-11T07:09:31;0.90;99.90
35246;DHT22;21379;50.962;6.960;2022-12-11T07:12:00;1.00;99.90
35246;DHT22;21379;50.962;6.960;2022-12-11T07:14:28;1.00;99.90
35246;DHT22;21379;50.962;6.960;2022-12-11T07:16:55;0.90;99.90
35246;DHT22;21379;50.962;6.960;2022-12-11T07:19:23;1.00;99.90
35246;DHT22;21379;50.962;6.960;2022-12-11T07:21:50;1.00;99.90
35246;DHT22;21379;50.962;6.960;2022-12-11T07:24:17;1.00;99.90
35246;DHT22;21379;50.962;6.960;2022-12-11T07:26:44;1.00;99.90
35246;DHT22;21379;50.962;6.960;2022-12-11T07:29:12;1.00;99.90
35246;DHT22;21379;50.962;6.960;2022-12-11T07:31:39;1.00;99.90
35246;DHT22;21379;50.962;6.960;2022-12-11T07:34:06;1.00;99.90
35246;DHT22;21379;50.962;6.960;2022-12-11T07:36:33;1.10;99.90
35246;DHT22;21379;50.962;6.960;2022-12-11T07:39:00;1.00;99.90
35246;DHT22;21379;50.962;6.960;2022-12-11T07:41:27;1.00;99.90
35246;DHT22;21379;50.962;6.960;2022-12-11T07:43:57;1.00;99.90
35246;DHT22;21379;50.962;6.960;2022-12-11T07:46:28;1.00;99.90
35246;DHT22;21379;50.962;6.960;2022-12-11T07:48:55;1.00;99.90
35246;DHT22;21379;50.962;6.960;2022-12-11T07:51:24;1.00;99.90
35246;DHT22;21379;50.962;6.960;2022-12-11T07:53:53;1.00;99.90
35246;DHT22;21379;50.962;6.960;2022-12-11T07:56:20;1.00;99.90
35246;DHT22;21379;50.962;6.960;2022-12-11T07:58:48;1.00;99.90
35246;DHT22;21379;50.962;6.960;2022-12-11T08:01:16;1.00;99.90
35246;DHT22;21379;50.962;6.960;2022-12-11T08:03:45;1.00;99.90
35246;DHT22;21379;50.962;6.960;2022-12-11T08:06:12;1.00;99.90
35246;DHT22;21379;50.962;6.960;2022-12-11T08:08:39;1.00;99.90
35246;DHT22;21379;50.962;6.960;2022-12-11T08:11:08;1.00;99.90
35246;DHT22;21379;50.962;6.960;2022-12-11T08:13:35;1.00;99.90
35246;DHT22;21379;50.962;6.960;2022-12-11T08:16:03;1.00;99.90
35246;DHT22;21379;50.962;6.960;2022-12-11T08:18:30;1.00;99.90
35246;DHT22;21379;50.962;6.960;2022-12-11T08:20:58;1.00;99.90
35246;DHT22;21379;50.962;6.960;2022-12-11T08:23:25;1.00;99.90
35246;DHT22;21379;50.962;6.960;2022-12-11T08:25:51;1.00;99.90
35246;DHT22;21379;50.962;6.960;2022-12-11T08:28:18;1.00;99.90
35246;DHT22;21379;50.962;6.960;2022-12-11T08:30:45;1.00;99.90
35246;DHT22;21379;50.962;6.960;2022-12-11T08:33:12;1.00;99.90
35246;DHT22;21379;50.962;6.960;2022-12-11T08:35:39;1.00;99.90
35246;DHT22;21379;50.962;6.960;2022-12-11T08:38:09;1.00;99.90
35246;DHT22;21379;50.962;6.960;2022-12-11T08:40:36;1.00;99.90
35246;DHT22;21379;50.962;6.960;2022-12-11T08:43:03;1.00;99.90
35246;DHT22;21379;50.962;6.960;2022-12-11T08:45:30;1.10;99.90
35246;DHT22;21379;50.962;6.960;2022-12-11T08:47:57;1.10;99.90
35246;DHT22;21379;50.962;6.960;2022-12-11T08:50:24;1.10;99.90
35246;DHT22;21379;50.962;6.960;2022-12-11T08:52:51;1.10;99.90
35246;DHT22;21379;50.962;6.960;2022-12-11T08:55:20;1.10;99.90
35246;DHT22;21379;50.962;6.960;2022-12-11T08:57:47;1.10;99.90
35246;DHT22;21379;50.962;6.960;2022-12-11T09:00:15;1.10;99.90
35246;DHT22;21379;50.962;6.960;2022-12-11T09:02:43;1.10;99.90
35246;DHT22;21379;50.962;6.960;2022-12-11T09:05:09;1.20;99.90
35246;DHT22;21379;50.962;6.960;2022-12-11T09:07:36;1.10;99.90
35246;DHT22;21379;50.962;6.960;2022-12-11T09:10:05;1.10;99.90
35246;DHT22;21379;50.962;6.960;2022-12-11T09:12:33;1.10;99.90
35246;DHT22;21379;50.962;6.960;2022-12-11T09:15:00;1.20;99.90
35246;DHT22;21379;50.962;6.960;2022-12-11T09:17:28;1.20;99.90
35246;DHT22;21379;50.962;6.960;2022-12-11T09:19:55;1.30;99.90
35246;DHT22;21379;50.962;6.960;2022-12-11T09:22:21;1.30;99.90
35246;DHT22;21379;50.962;6.960;2022-12-11T09:24:48;1.30;99.90
35246;DHT22;21379;50.962;6.960;2022-12-11T09:27:15;1.30;99.90
35246;DHT22;21379;50.962;6.960;2022-12-11T09:29:43;1.30;99.90
35246;DHT22;21379;50.962;6.960;2022-12-11T09:32:10;1.40;99.90
35246;DHT22;21379;50.962;6.960;2022-12-11T09:34:37;1.30;99.90
35246;DHT22;21379;50.962;6.960;2022-12-11T09:37:04;1.30;99.90
35246;DHT22;21379;50.962;6.960;2022-12-11T09:39:30;1.30;99.90
35246;DHT22;21379;50.962;6.960;2022-12-11T09:42:01;1.40;99.90
35246;DHT22;21379;50.962;6.960;2022-12-11T09:44:33;1.40;99.90
35246;DHT22;21379;50.962;6.960;2022-12-11T09:47:02;1.30;99.90
35246;DHT22;21379;50.962;6.960;2022-12-11T09:49:34;1.30;99.90
35246;DHT22;21379;50.962;6.960;2022-12-11T09:52:09;1.30;99.90
35246;DHT22;21379;50.962;6.960;2022-12-11T09:54:38;1.40;99.90
35246;DHT22;21379;50.962;6.960;2022-12-11T09:57:13;1.40;99.90
35246;DHT22;21379;50.962;6.960;2022-12-11T10:00:03;1.40;99.90
35246;DHT22;21379;50.962;6.960;2022-12-11T10:02:45;1.50;99.90
35246;DHT22;21379;50.962;6.960;2022-12-11T10:05:19;1.30;99.90
35246;DHT22;21379;50.962;6.960;2022-12-11T10:07:51;1.30;99.90
35246;DHT22;21379;50.962;6.960;2022-12-11T10:10:35;1.30;99.90
35246;DHT22;21379;50.962;6.960;2022-12-11T10:13:08;1.30;99.90
35246;DHT22;21379;50.962;6.960;2022-12-11T10:15:42;1.40;99.90
35246;DHT22;21379;50.962;6.960;2022-12-11T10:18:12;1.40;99.90
35246;DHT22;21379;50.962;6.960;2022-12-11T10:20:42;1.40;99.90
35246;DHT22;21379;50.962;6.960;2022-12-11T10:23:16;1.50;99.90
35246;DHT22;21379;50.962;6.960;2022-12-11T10:25:46;1.50;99.90
35246;DHT22;21379;50.962;6.960;2022-12-11T10:28:16;1.60;99.90
35246;DHT22;21379;50.962;6.960;2022-12-11T10:30:48;1.60;99.90
35246;DHT22;21379;50.962;6.960;2022-12-11T10:33:20;1.60;99.90
35246;DHT22;21379;50.962;6.960;2022-12-11T10:35:51;1.60;99.90
35246;DHT22;21379;50.962;6.960;2022-12-11T10:38:22;1.60;99.90
35246;DHT22;21379;50.962;6.960;2022-12-11T10:40:53;1.60;99.90
35246;DHT22;21379;50.962;6.960;2022-12-11T10:43:31;1.60;99.90
35246;DHT22;21379;50.962;6.960;2022-12-11T10:45:58;1.70;99.90
35246;DHT22;21379;50.962;6.960;2022-12-11T10:48:26;1.70;99.90
35246;DHT22;21379;50.962;6.960;2022-12-11T10:50:59;1.70;99.90
35246;DHT22;21379;50.962;6.960;2022-12-11T10:53:27;1.70;99.90
35246;DHT22;21379;50.962;6.960;2022-12-11T10:55:55;1.70;99.90
35246;DHT22;21379;50.962;6.960;2022-12-11T10:58:25;1.70;99.90
35246;DHT22;21379;50.962;6.960;2022-12-11T11:01:13;1.70;99.90
35246;DHT22;21379;50.962;6.960;2022-12-11T11:03:56;1.70;99.90
35246;DHT22;21379;50.962;6.960;2022-12-11T11:06:28;1.70;99.90
35246;DHT22;21379;50.962;6.960;2022-12-11T11:09:02;1.70;99.90
35246;DHT22;21379;50.962;6.960;2022-12-11T11:11:34;1.80;99.90
35246;DHT22;21379;50.962;6.960;2022-12-11T11:14:18;1.80;99.90
35246;DHT22;21379;50.962;6.960;2022-12-11T11:16:49;1.80;99.90
35246;DHT22;21379;50.962;6.960;2022-12-11T11:19:26;1.90;99.90
35246;DHT22;21379;50.962;6.960;2022-12-11T11:21:57;1.90;99.90
35246;DHT22;21379;50.962;6.960;2022-12-11T11:24:28;2.00;99.90
35246;DHT22;21379;50.962;6.960;2022-12-11T11:26:56;2.00;99.90
35246;DHT22;21379;50.962;6.960;2022-12-11T11:29:28;2.10;99.90
35246;DHT22;21379;50.962;6.960;2022-12-11T11:31:55;2.10;99.90
35246;DHT22;21379;50.962;6.960;2022-12-11T11:34:24;2.00;99.90
35246;DHT22;21379;50.962;6.960;2022-12-11T11:36:57;2.00;99.90
35246;DHT22;21379;50.962;6.960;2022-12-11T11:39:33;2.10;99.90
35246;DHT22;21379;50.962;6.960;2022-12-11T11:42:07;2.10;99.90
35246;DHT22;21379;50.962;6.960;2022-12-11T11:44:38;2.10;99.90
35246;DHT22;21379;50.962;6.960;2022-12-11T11:47:12;2.10;99.90
35246;DHT22;21379;50.962;6.960;2022-12-11T11:49:49;2.10;99.90
35246;DHT22;21379;50.962;6.960;2022-12-11T11:52:26;2.10;99.90
35246;DHT22;21379;50.962;6.960;2022-12-11T11:55:02;2.10;99.90
35246;DHT22;21379;50.962;6.960;2022-12-11T11:57:39;2.10;99.90
35246;DHT22;21379;50.962;6.960;2022-12-11T12:00:17;2.20;99.90
35246;DHT22;21379;50.962;6.960;2022-12-11T12:02:45;2.10;99.90
35246;DHT22;21379;50.962;6.960;2022-12-11T12:05:17;2.20;99.90
35246;DHT22;21379;50.962;6.960;2022-12-11T12:07:51;2.10;99.90
35246;DHT22;21379;50.962;6.960;2022-12-11T12:10:30;2.20;99.90
35246;DHT22;21379;50.962;6.960;2022-12-11T12:13:02;2.30;99.90
35246;DHT22;21379;50.962;6.960;2022-12-11T12:15:41;2.30;99.90
35246;DHT22;21379;50.962;6.960;2022-12-11T12:18:18;2.30;99.90
35246;DHT22;21379;50.962;6.960;2022-12-11T12:20:57;2.30;99.90
35246;DHT22;21379;50.962;6.960;2022-12-11T12:23:43;2.20;99.90
35246;DHT22;21379;50.962;6.960;2022-12-11T12:26:19;2.30;99.90
35246;DHT22;21379;50.962;6.960;2022-12-11T12:28:51;2.20;99.90
35246;DHT22;21379;50.962;6.960;2022-12-11T12:31:35;2.20;99.90
35246;DHT22;21379;50.962;6.960;2022-12-11T12:34:12;2.20;99.90
35246;DHT22;21379;50.962;6.960;2022-12-11T12:36:47;2.20;99.90
35246;DHT22;21379;50.962;6.960;2022-12-11T12:39:20;2.30;99.90
35246;DHT22;21379;50.962;6.960;2022-12-11T12:41:54;2.30;99.90
35246;DHT22;21379;50.962;6.960;2022-12-11T12:44:23;2.50;99.90
35246;DHT22;21379;50.962;6.960;2022-12-11T12:46:53;2.60;99.90
35246;DHT22;21379;50.962;6.960;2022-12-11T12:49:29;2.80;99.90
35246;DHT22;21379;50.962;6.960;2022-12-11T12:52:01;2.90;99.90
35246;DHT22;21379;50.962;6.960;2022-12-11T12:54:29;2.90;99.90
35246;DHT22;21379;50.962;6.960;2022-12-11T12:56:58;2.90;99.90
35246;DHT22;21379;50.962;6.960;2022-12-11T12:59:26;2.80;99.90
35246;DHT22;21379;50.962;6.960;2022-12-11T13:01:55;2.90;99.90
35246;DHT22;21379;50.962;6.960;2022-12-11T13:04:38;2.90;99.90
35246;DHT22;21379;50.962;6.960;2022-12-11T13:07:16;2.90;99.90
35246;DHT22;21379;50.962;6.960;2022-12-11T13:09:59;2.80;99.90
35246;DHT22;21379;50.962;6.960;2022-12-11T13:12:44;2.80;99.90
35246;DHT22;21379;50.962;6.960;2022-12-11T13:15:31;2.70;99.90
35246;DHT22;21379;50.962;6.960;2022-12-11T13:17:59;2.60;99.90
35246;DHT22;21379;50.962;6.960;2022-12-11T13:20:28;2.60;99.90
35246;DHT22;21379;50.962;6.960;2022-12-11T13:23:15;2.60;99.90
35246;DHT22;21379;50.962;6.960;2022-12-11T13:25:49;2.50;99.90
35246;DHT22;21379;50.962;6.960;2022-12-11T13:28:32;2.50;99.90
35246;DHT22;21379;50.962;6.960;2022-12-11T13:31:22;2.50;99.90
35246;DHT22;21379;50.962;6.960;2022-12-11T13:33:51;2.50;99.90
35246;DHT22;21379;50.962;6.960;2022-12-11T13:36:30;2.50;99.90
35246;DHT22;21379;50.962;6.960;2022-12-11T13:39:01;2.50;99.90
35246;DHT22;21379;50.962;6.960;2022-12-11T13:41:33;2.60;99.90
35246;DHT22;21379;50.962;6.960;2022-12-11T13:44:02;2.50;99.90
35246;DHT22;21379;50.962;6.960;2022-12-11T13:46:34;2.50;99.90
35246;DHT22;21379;50.962;6.960;2022-12-11T13:49:04;2.50;99.90
35246;DHT22;21379;50.962;6.960;2022-12-11T13:51:32;2.50;99.90
35246;DHT22;21379;50.962;6.960;2022-12-11T13:54:05;2.50;99.90
35246;DHT22;21379;50.962;6.960;2022-12-11T13:56:32;2.50;99.90
35246;DHT22;21379;50.962;6.960;2022-12-11T13:58:59;2.50;99.90
35246;DHT22;21379;50.962;6.960;2022-12-11T14:01:27;2.50;99.90
35246;DHT22;21379;50.962;6.960;2022-12-11T14:03:57;2.40;99.90
35246;DHT22;21379;50.962;6.960;2022-12-11T14:06:25;2.50;99.90
35246;DHT22;21379;50.962;6.960;2022-12-11T14:08:55;2.50;99.90
35246;DHT22;21379;50.962;6.960;2022-12-11T14:11:27;2.50;99.90
35246;DHT22;21379;50.962;6.960;2022-12-11T14:13:56;2.50;99.90
35246;DHT22;21379;50.962;6.960;2022-12-11T14:16:25;2.50;99.90
35246;DHT22;21379;50.962;6.960;2022-12-11T14:18:53;2.40;99.90
35246;DHT22;21379;50.962;6.960;2022-12-11T14:21:22;2.40;99.90
35246;DHT22;21379;50.962;6.960;2022-12-11T14:23:54;2.40;99.90
35246;DHT22;21379;50.962;6.960;2022-12-11T14:26:22;2.40;99.90
35246;DHT22;21379;50.962;6.960;2022-12-11T14:28:51;2.40;99.90
35246;DHT22;21379;50.962;6.960;2022-12-11T14:31:32;2.40;99.90
35246;DHT22;21379;50.962;6.960;2022-12-11T14:34:02;2.40;99.90
35246;DHT22;21379;50.962;6.960;2022-12-11T14:36:30;2.30;99.90
35246;DHT22;21379;50.962;6.960;2022-12-11T14:39:02;2.30;99.90
35246;DHT22;21379;50.962;6.960;2022-12-11T14:41:37;2.30;99.90
35246;DHT22;21379;50.962;6.960;2022-12-11T14:44:13;2.30;99.90
35246;DHT22;21379;50.962;6.960;2022-12-11T14:46:42;2.30;99.90
35246;DHT22;21379;50.962;6.960;2022-12-11T14:49:16;2.30;99.90
35246;DHT22;21379;50.962;6.960;2022-12-11T14:51:45;2.30;99.90
35246;DHT22;21379;50.962;6.960;2022-12-11T14:54:19;2.30;99.90
35246;DHT22;21379;50.962;6.960;2022-12-11T14:56:48;2.20;99.90
35246;DHT22;21379;50.962;6.960;2022-12-11T14:59:19;2.20;99.90
35246;DHT22;21379;50.962;6.960;2022-12-11T15:01:56;2.20;99.90
35246;DHT22;21379;50.962;6.960;2022-12-11T15:04:27;2.20;99.90
35246;DHT22;21379;50.962;6.960;2022-12-11T15:06:54;2.20;99.90
35246;DHT22;21379;50.962;6.960;2022-12-11T15:09:26;2.20;99.90
35246;DHT22;21379;50.962;6.960;2022-12-11T15:11:55;2.20;99.90
35246;DHT22;21379;50.962;6.960;2022-12-11T15:14:24;2.20;99.90
35246;DHT22;21379;50.962;6.960;2022-12-11T15:16:55;2.20;99.90
35246;DHT22;21379;50.962;6.960;2022-12-11T15:19:24;2.20;99.90
35246;DHT22;21379;50.962;6.960;2022-12-11T15:21:53;2.20;99.90
35246;DHT22;21379;50.962;6.960;2022-12-11T15:24:24;2.20;99.90
35246;DHT22;21379;50.962;6.960;2022-12-11T15:26:56;2.20;99.90
35246;DHT22;21379;50.962;6.960;2022-12-11T15:29:29;2.20;99.90
35246;DHT22;21379;50.962;6.960;2022-12-11T15:32:02;2.20;99.90
35246;DHT22;21379;50.962;6.960;2022-12-11T15:34:34;2.20;99.90
35246;DHT22;21379;50.962;6.960;2022-12-11T15:37:01;2.20;99.90
35246;DHT22;21379;50.962;6.960;2022-12-11T15:39:28;2.20;99.90
35246;DHT22;21379;50.962;6.960;2022-12-11T15:41:55;2.20;99.90
35246;DHT22;21379;50.962;6.960;2022-12-11T15:44:22;2.20;99.90
35246;DHT22;21379;50.962;6.960;2022-12-11T15:46:50;2.20;99.90
35246;DHT22;21379;50.962;6.960;2022-12-11T15:49:17;2.20;99.90
35246;DHT22;21379;50.962;6.960;2022-12-11T15:51:48;2.20;99.90
35246;DHT22;21379;50.962;6.960;2022-12-11T15:54:16;2.20;99.90
35246;DHT22;21379;50.962;6.960;2022-12-11T15:56:42;2.20;99.90
35246;DHT22;21379;50.962;6.960;2022-12-11T15:59:10;2.20;99.90
35246;DHT22;21379;50.962;6.960;2022-12-11T16:01:37;2.10;99.90
35246;DHT22;21379;50.962;6.960;2022-12-11T16:04:05;2.10;99.90